sensor_id;sensor_type;location;lat;lon;timestamp;P1;durP1;ratioP1;P2;durP2;ratioP2
13975;SDS011;7062;49.792;9.946;2024-02-26T00:02:21;9.70;;;4.87;;
13975;SDS011;7062;49.792;9.946;2024-02-26T00:04:46;6.10;;;4.87;;
13975;SDS011;7062;49.792;9.946;2024-02-26T00:07:12;6.80;;;4.90;;
13975;SDS011;7062;49.792;9.946;2024-02-26T00:09:38;7.13;;;4.57;;
13975;SDS011;7062;49.792;9.946;2024-02-26T00:12:04;5.90;;;4.80;;
13975;SDS011;7062;49.792;9.946;2024-02-26T00:14:30;6.47;;;5.13;;
13975;SDS011;7062;49.792;9.946;2024-02-26T00:16:56;5.73;;;4.00;;
13975;SDS011;7062;49.792;9.946;2024-02-26T00:19:22;5.13;;;4.03;;
13975;SDS011;7062;49.792;9.946;2024-02-26T00:21:47;4.77;;;3.70;;
13975;SDS011;7062;49.792;9.946;2024-02-26T00:24:13;4.27;;;3.73;;
13975;SDS011;7062;49.792;9.946;2024-02-26T00:26:39;4.60;;;3.77;;
13975;SDS011;7062;49.792;9.946;2024-02-26T00:29:04;4.10;;;3.30;;
13975;SDS011;7062;49.792;9.946;2024-02-26T00:31:30;3.77;;;3.40;;
13975;SDS011;7062;49.792;9.946;2024-02-26T00:33:56;5.57;;;3.83;;
13975;SDS011;7062;49.792;9.946;2024-02-26T00:36:22;4.73;;;3.77;;
13975;SDS011;7062;49.792;9.946;2024-02-26T00:38:47;5.47;;;3.53;;
13975;SDS011;7062;49.792;9.946;2024-02-26T00:41:19;5.43;;;3.87;;
13975;SDS011;7062;49.792;9.946;2024-02-26T00:43:45;5.20;;;3.83;;
13975;SDS011;7062;49.792;9.946;2024-02-26T00:46:11;5.37;;;3.47;;
13975;SDS011;7062;49.792;9.946;2024-02-26T00:48:37;4.63;;;3.53;;
13975;SDS011;7062;49.792;9.946;2024-02-26T00:51:03;4.93;;;3.63;;
13975;SDS011;7062;49.792;9.946;2024-02-26T00:53:33;6.27;;;4.40;;
13975;SDS011;7062;49.792;9.946;2024-02-26T00:55:59;5.07;;;3.77;;
13975;SDS011;7062;49.792;9.946;2024-02-26T00:58:25;6.87;;;3.90;;
13975;SDS011;7062;49.792;9.946;2024-02-26T01:00:51;4.77;;;4.00;;
13975;SDS011;7062;49.792;9.946;2024-02-26T01:03:17;4.73;;;3.70;;
13975;SDS011;7062;49.792;9.946;2024-02-26T01:05:43;5.57;;;4.33;;
13975;SDS011;7062;49.792;9.946;2024-02-26T01:08:08;5.30;;;4.00;;
13975;SDS011;7062;49.792;9.946;2024-02-26T01:10:34;7.63;;;4.27;;
13975;SDS011;7062;49.792;9.946;2024-02-26T01:13:00;5.17;;;4.27;;
13975;SDS011;7062;49.792;9.946;2024-02-26T01:15:26;5.37;;;4.23;;
13975;SDS011;7062;49.792;9.946;2024-02-26T01:17:52;3.97;;;3.50;;
13975;SDS011;7062;49.792;9.946;2024-02-26T01:20:18;4.13;;;3.73;;
13975;SDS011;7062;49.792;9.946;2024-02-26T01:22:44;5.57;;;3.83;;
13975;SDS011;7062;49.792;9.946;2024-02-26T01:25:09;4.93;;;3.73;;
13975;SDS011;7062;49.792;9.946;2024-02-26T01:27:35;6.63;;;4.07;;
13975;SDS011;7062;49.792;9.946;2024-02-26T01:30:02;5.60;;;3.80;;
13975;SDS011;7062;49.792;9.946;2024-02-26T01:32:29;3.90;;;3.50;;
13975;SDS011;7062;49.792;9.946;2024-02-26T01:34:55;5.93;;;4.20;;
13975;SDS011;7062;49.792;9.946;2024-02-26T01:37:21;4.07;;;3.53;;
13975;SDS011;7062;49.792;9.946;2024-02-26T01:39:46;4.87;;;3.63;;
13975;SDS011;7062;49.792;9.946;2024-02-26T01:42:12;4.67;;;3.90;;
13975;SDS011;7062;49.792;9.946;2024-02-26T01:44:38;4.13;;;3.03;;
13975;SDS011;7062;49.792;9.946;2024-02-26T01:47:04;4.20;;;3.53;;
13975;SDS011;7062;49.792;9.946;2024-02-26T01:49:33;4.90;;;3.70;;
13975;SDS011;7062;49.792;9.946;2024-02-26T01:52:00;3.33;;;3.03;;
13975;SDS011;7062;49.792;9.946;2024-02-26T01:54:27;6.07;;;3.80;;
13975;SDS011;7062;49.792;9.946;2024-02-26T01:56:54;4.83;;;3.80;;
13975;SDS011;7062;49.792;9.946;2024-02-26T01:59:20;4.70;;;3.90;;
13975;SDS011;7062;49.792;9.946;2024-02-26T02:01:47;4.53;;;3.13;;
13975;SDS011;7062;49.792;9.946;2024-02-26T02:04:17;4.37;;;3.60;;
13975;SDS011;7062;49.792;9.946;2024-02-26T02:06:43;3.67;;;2.97;;
13975;SDS011;7062;49.792;9.946;2024-02-26T02:09:11;4.80;;;2.90;;
13975;SDS011;7062;49.792;9.946;2024-02-26T02:11:36;4.13;;;3.23;;
13975;SDS011;7062;49.792;9.946;2024-02-26T02:14:03;4.17;;;2.97;;
13975;SDS011;7062;49.792;9.946;2024-02-26T02:16:28;5.10;;;3.20;;
13975;SDS011;7062;49.792;9.946;2024-02-26T02:18:54;3.70;;;3.23;;
13975;SDS011;7062;49.792;9.946;2024-02-26T02:21:20;4.67;;;3.03;;
13975;SDS011;7062;49.792;9.946;2024-02-26T02:23:45;4.57;;;2.93;;
13975;SDS011;7062;49.792;9.946;2024-02-26T02:26:12;5.83;;;3.60;;
13975;SDS011;7062;49.792;9.946;2024-02-26T02:28:39;3.67;;;2.87;;
13975;SDS011;7062;49.792;9.946;2024-02-26T02:31:06;4.67;;;3.67;;
13975;SDS011;7062;49.792;9.946;2024-02-26T02:33:31;4.07;;;2.70;;
13975;SDS011;7062;49.792;9.946;2024-02-26T02:35:59;3.83;;;2.70;;
13975;SDS011;7062;49.792;9.946;2024-02-26T02:38:25;4.17;;;3.07;;
13975;SDS011;7062;49.792;9.946;2024-02-26T02:40:53;3.93;;;2.90;;
13975;SDS011;7062;49.792;9.946;2024-02-26T02:43:19;3.80;;;3.10;;
13975;SDS011;7062;49.792;9.946;2024-02-26T02:45:45;6.13;;;3.20;;
13975;SDS011;7062;49.792;9.946;2024-02-26T02:48:11;4.63;;;2.77;;
13975;SDS011;7062;49.792;9.946;2024-02-26T02:50:37;3.63;;;2.63;;
13975;SDS011;7062;49.792;9.946;2024-02-26T02:53:03;2.93;;;2.30;;
13975;SDS011;7062;49.792;9.946;2024-02-26T02:55:28;3.90;;;2.77;;
13975;SDS011;7062;49.792;9.946;2024-02-26T02:57:54;4.50;;;2.67;;
13975;SDS011;7062;49.792;9.946;2024-02-26T03:00:20;4.23;;;2.90;;
13975;SDS011;7062;49.792;9.946;2024-02-26T03:02:48;3.83;;;2.17;;
13975;SDS011;7062;49.792;9.946;2024-02-26T03:05:16;3.67;;;2.60;;
13975;SDS011;7062;49.792;9.946;2024-02-26T03:07:42;2.73;;;2.10;;
13975;SDS011;7062;49.792;9.946;2024-02-26T03:10:07;2.87;;;2.30;;
13975;SDS011;7062;49.792;9.946;2024-02-26T03:12:33;4.20;;;2.30;;
13975;SDS011;7062;49.792;9.946;2024-02-26T03:14:59;2.87;;;2.10;;
13975;SDS011;7062;49.792;9.946;2024-02-26T03:17:30;5.43;;;1.83;;
13975;SDS011;7062;49.792;9.946;2024-02-26T03:19:56;3.00;;;1.90;;
13975;SDS011;7062;49.792;9.946;2024-02-26T03:22:21;4.30;;;2.50;;
13975;SDS011;7062;49.792;9.946;2024-02-26T03:24:47;3.40;;;2.17;;
13975;SDS011;7062;49.792;9.946;2024-02-26T03:27:13;2.97;;;2.13;;
13975;SDS011;7062;49.792;9.946;2024-02-26T03:29:39;2.97;;;2.67;;
13975;SDS011;7062;49.792;9.946;2024-02-26T03:32:05;3.00;;;1.97;;
13975;SDS011;7062;49.792;9.946;2024-02-26T03:34:31;3.83;;;2.30;;
13975;SDS011;7062;49.792;9.946;2024-02-26T03:37:01;3.30;;;2.60;;
13975;SDS011;7062;49.792;9.946;2024-02-26T03:39:27;3.10;;;1.83;;
13975;SDS011;7062;49.792;9.946;2024-02-26T03:41:53;3.43;;;2.40;;
13975;SDS011;7062;49.792;9.946;2024-02-26T03:44:19;4.27;;;2.60;;
13975;SDS011;7062;49.792;9.946;2024-02-26T03:46:45;3.20;;;2.17;;
13975;SDS011;7062;49.792;9.946;2024-02-26T03:49:10;3.93;;;2.70;;
13975;SDS011;7062;49.792;9.946;2024-02-26T03:51:36;6.37;;;2.80;;
13975;SDS011;7062;49.792;9.946;2024-02-26T03:54:02;3.67;;;2.77;;
13975;SDS011;7062;49.792;9.946;2024-02-26T03:56:28;3.07;;;2.30;;
13975;SDS011;7062;49.792;9.946;2024-02-26T03:58:54;3.80;;;2.60;;
13975;SDS011;7062;49.792;9.946;2024-02-26T04:01:19;4.30;;;2.27;;
13975;SDS011;7062;49.792;9.946;2024-02-26T04:03:45;3.93;;;2.60;;
13975;SDS011;7062;49.792;9.946;2024-02-26T04:06:11;3.07;;;2.13;;
13975;SDS011;7062;49.792;9.946;2024-02-26T04:08:39;4.13;;;2.67;;
13975;SDS011;7062;49.792;9.946;2024-02-26T04:11:05;4.03;;;2.67;;
13975;SDS011;7062;49.792;9.946;2024-02-26T04:13:35;3.63;;;2.70;;
13975;SDS011;7062;49.792;9.946;2024-02-26T04:16:03;4.23;;;3.03;;
13975;SDS011;7062;49.792;9.946;2024-02-26T04:18:29;3.83;;;2.77;;
13975;SDS011;7062;49.792;9.946;2024-02-26T04:20:55;3.67;;;2.53;;
13975;SDS011;7062;49.792;9.946;2024-02-26T04:23:21;4.50;;;2.57;;
13975;SDS011;7062;49.792;9.946;2024-02-26T04:25:47;3.33;;;2.60;;
13975;SDS011;7062;49.792;9.946;2024-02-26T04:28:13;3.80;;;2.53;;
13975;SDS011;7062;49.792;9.946;2024-02-26T04:30:38;4.97;;;2.63;;
13975;SDS011;7062;49.792;9.946;2024-02-26T04:33:04;3.80;;;2.80;;
13975;SDS011;7062;49.792;9.946;2024-02-26T04:35:30;4.13;;;2.80;;
13975;SDS011;7062;49.792;9.946;2024-02-26T04:37:56;3.77;;;2.60;;
13975;SDS011;7062;49.792;9.946;2024-02-26T04:40:22;3.47;;;2.40;;
13975;SDS011;7062;49.792;9.946;2024-02-26T04:42:47;3.23;;;2.37;;
13975;SDS011;7062;49.792;9.946;2024-02-26T04:45:13;3.90;;;2.30;;
13975;SDS011;7062;49.792;9.946;2024-02-26T04:47:39;5.00;;;2.60;;
13975;SDS011;7062;49.792;9.946;2024-02-26T04:50:04;4.67;;;3.43;;
13975;SDS011;7062;49.792;9.946;2024-02-26T04:52:30;4.67;;;3.00;;
13975;SDS011;7062;49.792;9.946;2024-02-26T04:54:56;5.23;;;2.63;;
13975;SDS011;7062;49.792;9.946;2024-02-26T04:57:22;4.63;;;2.53;;
13975;SDS011;7062;49.792;9.946;2024-02-26T04:59:47;4.97;;;4.00;;
13975;SDS011;7062;49.792;9.946;2024-02-26T05:02:13;3.33;;;3.03;;
13975;SDS011;7062;49.792;9.946;2024-02-26T05:04:39;3.57;;;2.70;;
13975;SDS011;7062;49.792;9.946;2024-02-26T05:07:04;7.10;;;3.40;;
13975;SDS011;7062;49.792;9.946;2024-02-26T05:09:30;3.50;;;2.43;;
13975;SDS011;7062;49.792;9.946;2024-02-26T05:11:56;5.33;;;2.93;;
13975;SDS011;7062;49.792;9.946;2024-02-26T05:14:22;5.67;;;3.53;;
13975;SDS011;7062;49.792;9.946;2024-02-26T05:16:48;4.80;;;2.73;;
13975;SDS011;7062;49.792;9.946;2024-02-26T05:19:13;4.20;;;2.80;;
13975;SDS011;7062;49.792;9.946;2024-02-26T05:21:39;3.47;;;2.70;;
13975;SDS011;7062;49.792;9.946;2024-02-26T05:24:05;3.83;;;3.00;;
13975;SDS011;7062;49.792;9.946;2024-02-26T05:26:31;5.77;;;3.20;;
13975;SDS011;7062;49.792;9.946;2024-02-26T05:28:57;4.67;;;3.53;;
13975;SDS011;7062;49.792;9.946;2024-02-26T05:31:24;4.70;;;3.40;;
13975;SDS011;7062;49.792;9.946;2024-02-26T05:33:51;4.03;;;3.00;;
13975;SDS011;7062;49.792;9.946;2024-02-26T05:36:20;5.50;;;3.30;;
13975;SDS011;7062;49.792;9.946;2024-02-26T05:38:47;8.63;;;3.97;;
13975;SDS011;7062;49.792;9.946;2024-02-26T05:41:16;4.23;;;3.30;;
13975;SDS011;7062;49.792;9.946;2024-02-26T05:43:45;4.73;;;3.63;;
13975;SDS011;7062;49.792;9.946;2024-02-26T05:46:11;4.77;;;3.40;;
13975;SDS011;7062;49.792;9.946;2024-02-26T05:48:36;8.57;;;4.43;;
13975;SDS011;7062;49.792;9.946;2024-02-26T05:51:02;7.10;;;3.43;;
13975;SDS011;7062;49.792;9.946;2024-02-26T05:53:29;4.07;;;3.20;;
13975;SDS011;7062;49.792;9.946;2024-02-26T05:55:54;6.57;;;4.60;;
13975;SDS011;7062;49.792;9.946;2024-02-26T05:58:20;6.83;;;3.67;;
13975;SDS011;7062;49.792;9.946;2024-02-26T06:00:46;6.50;;;4.53;;
13975;SDS011;7062;49.792;9.946;2024-02-26T06:03:11;6.00;;;4.37;;
13975;SDS011;7062;49.792;9.946;2024-02-26T06:05:37;9.73;;;5.90;;
13975;SDS011;7062;49.792;9.946;2024-02-26T06:08:02;7.53;;;5.07;;
13975;SDS011;7062;49.792;9.946;2024-02-26T06:10:28;6.77;;;5.00;;
13975;SDS011;7062;49.792;9.946;2024-02-26T06:12:54;7.87;;;5.73;;
13975;SDS011;7062;49.792;9.946;2024-02-26T06:15:20;8.63;;;5.80;;
13975;SDS011;7062;49.792;9.946;2024-02-26T06:17:45;7.73;;;5.37;;
13975;SDS011;7062;49.792;9.946;2024-02-26T06:20:11;6.37;;;5.27;;
13975;SDS011;7062;49.792;9.946;2024-02-26T06:22:39;9.80;;;5.83;;
13975;SDS011;7062;49.792;9.946;2024-02-26T06:25:05;9.43;;;5.93;;
13975;SDS011;7062;49.792;9.946;2024-02-26T06:27:31;7.03;;;5.67;;
13975;SDS011;7062;49.792;9.946;2024-02-26T06:29:57;7.60;;;5.93;;
13975;SDS011;7062;49.792;9.946;2024-02-26T06:32:22;7.73;;;5.90;;
13975;SDS011;7062;49.792;9.946;2024-02-26T06:34:48;8.90;;;5.30;;
13975;SDS011;7062;49.792;9.946;2024-02-26T06:37:14;5.50;;;4.60;;
13975;SDS011;7062;49.792;9.946;2024-02-26T06:39:39;8.90;;;4.80;;
13975;SDS011;7062;49.792;9.946;2024-02-26T06:42:06;6.50;;;5.00;;
13975;SDS011;7062;49.792;9.946;2024-02-26T06:44:32;11.07;;;6.40;;
13975;SDS011;7062;49.792;9.946;2024-02-26T06:46:58;9.13;;;4.77;;
13975;SDS011;7062;49.792;9.946;2024-02-26T06:49:24;9.23;;;5.90;;
13975;SDS011;7062;49.792;9.946;2024-02-26T06:51:50;6.30;;;5.43;;
13975;SDS011;7062;49.792;9.946;2024-02-26T06:54:16;9.83;;;6.23;;
13975;SDS011;7062;49.792;9.946;2024-02-26T06:56:42;8.63;;;5.93;;
13975;SDS011;7062;49.792;9.946;2024-02-26T06:59:07;11.40;;;5.50;;
13975;SDS011;7062;49.792;9.946;2024-02-26T07:01:33;11.13;;;6.03;;
13975;SDS011;7062;49.792;9.946;2024-02-26T07:03:59;11.13;;;5.90;;
13975;SDS011;7062;49.792;9.946;2024-02-26T07:06:25;8.10;;;5.93;;
13975;SDS011;7062;49.792;9.946;2024-02-26T07:08:52;11.93;;;6.70;;
13975;SDS011;7062;49.792;9.946;2024-02-26T07:11:17;14.13;;;7.03;;
13975;SDS011;7062;49.792;9.946;2024-02-26T07:13:45;10.30;;;7.03;;
13975;SDS011;7062;49.792;9.946;2024-02-26T07:16:11;11.03;;;7.53;;
13975;SDS011;7062;49.792;9.946;2024-02-26T07:18:36;9.70;;;7.20;;
13975;SDS011;7062;49.792;9.946;2024-02-26T07:21:02;9.97;;;7.50;;
13975;SDS011;7062;49.792;9.946;2024-02-26T07:23:28;10.63;;;7.37;;
13975;SDS011;7062;49.792;9.946;2024-02-26T07:25:54;11.50;;;7.77;;
13975;SDS011;7062;49.792;9.946;2024-02-26T07:28:20;13.47;;;8.70;;
13975;SDS011;7062;49.792;9.946;2024-02-26T07:30:46;12.77;;;9.43;;
13975;SDS011;7062;49.792;9.946;2024-02-26T07:33:12;12.93;;;9.10;;
13975;SDS011;7062;49.792;9.946;2024-02-26T07:35:37;10.50;;;8.67;;
13975;SDS011;7062;49.792;9.946;2024-02-26T07:38:04;13.60;;;9.53;;
13975;SDS011;7062;49.792;9.946;2024-02-26T07:40:30;10.53;;;7.80;;
13975;SDS011;7062;49.792;9.946;2024-02-26T07:42:55;11.73;;;8.63;;
13975;SDS011;7062;49.792;9.946;2024-02-26T07:45:21;9.17;;;7.47;;
13975;SDS011;7062;49.792;9.946;2024-02-26T07:47:47;12.57;;;9.00;;
13975;SDS011;7062;49.792;9.946;2024-02-26T07:50:13;12.90;;;9.27;;
13975;SDS011;7062;49.792;9.946;2024-02-26T07:52:39;15.73;;;8.73;;
13975;SDS011;7062;49.792;9.946;2024-02-26T07:55:05;10.53;;;8.50;;
13975;SDS011;7062;49.792;9.946;2024-02-26T07:57:34;11.77;;;9.23;;
13975;SDS011;7062;49.792;9.946;2024-02-26T08:00:00;14.13;;;9.90;;
13975;SDS011;7062;49.792;9.946;2024-02-26T08:02:27;11.03;;;8.40;;
13975;SDS011;7062;49.792;9.946;2024-02-26T08:04:53;13.13;;;9.37;;
13975;SDS011;7062;49.792;9.946;2024-02-26T08:07:18;12.30;;;10.40;;
13975;SDS011;7062;49.792;9.946;2024-02-26T08:09:46;12.13;;;9.73;;
13975;SDS011;7062;49.792;9.946;2024-02-26T08:12:12;10.87;;;9.77;;
13975;SDS011;7062;49.792;9.946;2024-02-26T08:14:37;14.60;;;9.30;;
13975;SDS011;7062;49.792;9.946;2024-02-26T08:17:03;12.20;;;9.80;;
13975;SDS011;7062;49.792;9.946;2024-02-26T08:19:29;11.50;;;9.03;;
13975;SDS011;7062;49.792;9.946;2024-02-26T08:21:54;12.77;;;9.63;;
13975;SDS011;7062;49.792;9.946;2024-02-26T08:24:20;11.93;;;8.83;;
13975;SDS011;7062;49.792;9.946;2024-02-26T08:26:46;12.33;;;9.80;;
13975;SDS011;7062;49.792;9.946;2024-02-26T08:29:11;11.97;;;8.37;;
13975;SDS011;7062;49.792;9.946;2024-02-26T08:31:37;13.13;;;8.50;;
13975;SDS011;7062;49.792;9.946;2024-02-26T08:34:03;13.30;;;8.73;;
13975;SDS011;7062;49.792;9.946;2024-02-26T08:36:30;15.27;;;9.30;;
13975;SDS011;7062;49.792;9.946;2024-02-26T08:38:58;9.90;;;8.87;;
13975;SDS011;7062;49.792;9.946;2024-02-26T08:41:23;11.00;;;8.33;;
13975;SDS011;7062;49.792;9.946;2024-02-26T08:43:49;11.43;;;9.87;;
13975;SDS011;7062;49.792;9.946;2024-02-26T08:46:15;11.63;;;9.37;;
13975;SDS011;7062;49.792;9.946;2024-02-26T08:48:40;11.30;;;9.33;;
13975;SDS011;7062;49.792;9.946;2024-02-26T08:51:06;12.77;;;8.53;;
13975;SDS011;7062;49.792;9.946;2024-02-26T08:53:33;10.23;;;8.13;;
13975;SDS011;7062;49.792;9.946;2024-02-26T08:55:59;12.53;;;8.97;;
13975;SDS011;7062;49.792;9.946;2024-02-26T08:58:24;10.90;;;8.87;;
13975;SDS011;7062;49.792;9.946;2024-02-26T09:00:51;11.30;;;10.10;;
13975;SDS011;7062;49.792;9.946;2024-02-26T09:03:17;11.70;;;9.63;;
13975;SDS011;7062;49.792;9.946;2024-02-26T09:05:42;11.23;;;8.50;;
13975;SDS011;7062;49.792;9.946;2024-02-26T09:08:08;10.87;;;8.47;;
13975;SDS011;7062;49.792;9.946;2024-02-26T09:10:34;11.57;;;8.03;;
13975;SDS011;7062;49.792;9.946;2024-02-26T09:12:59;8.50;;;7.53;;
13975;SDS011;7062;49.792;9.946;2024-02-26T09:15:25;8.90;;;7.47;;
13975;SDS011;7062;49.792;9.946;2024-02-26T09:17:51;8.90;;;6.57;;
13975;SDS011;7062;49.792;9.946;2024-02-26T09:20:17;8.53;;;6.70;;
13975;SDS011;7062;49.792;9.946;2024-02-26T09:22:46;9.07;;;7.50;;
13975;SDS011;7062;49.792;9.946;2024-02-26T09:25:12;8.67;;;6.63;;
13975;SDS011;7062;49.792;9.946;2024-02-26T09:27:40;9.97;;;7.40;;
13975;SDS011;7062;49.792;9.946;2024-02-26T09:30:07;8.03;;;5.80;;
13975;SDS011;7062;49.792;9.946;2024-02-26T09:32:33;9.40;;;6.90;;
13975;SDS011;7062;49.792;9.946;2024-02-26T09:34:59;8.27;;;6.97;;
13975;SDS011;7062;49.792;9.946;2024-02-26T09:37:24;7.23;;;6.03;;
13975;SDS011;7062;49.792;9.946;2024-02-26T09:39:50;9.20;;;7.13;;
13975;SDS011;7062;49.792;9.946;2024-02-26T09:42:16;10.53;;;5.90;;
13975;SDS011;7062;49.792;9.946;2024-02-26T09:44:44;12.00;;;7.50;;
13975;SDS011;7062;49.792;9.946;2024-02-26T09:47:11;8.90;;;6.27;;
13975;SDS011;7062;49.792;9.946;2024-02-26T09:49:40;9.03;;;5.47;;
13975;SDS011;7062;49.792;9.946;2024-02-26T09:52:08;10.23;;;5.97;;
13975;SDS011;7062;49.792;9.946;2024-02-26T09:54:34;6.97;;;5.90;;
13975;SDS011;7062;49.792;9.946;2024-02-26T09:57:02;10.53;;;7.10;;
13975;SDS011;7062;49.792;9.946;2024-02-26T09:59:40;10.90;;;6.90;;
13975;SDS011;7062;49.792;9.946;2024-02-26T10:02:11;8.23;;;6.40;;
13975;SDS011;7062;49.792;9.946;2024-02-26T10:04:41;9.03;;;6.37;;
13975;SDS011;7062;49.792;9.946;2024-02-26T10:07:11;7.53;;;6.33;;
13975;SDS011;7062;49.792;9.946;2024-02-26T10:09:38;7.17;;;5.50;;
13975;SDS011;7062;49.792;9.946;2024-02-26T10:12:04;7.83;;;5.60;;
13975;SDS011;7062;49.792;9.946;2024-02-26T10:14:32;7.67;;;6.43;;
13975;SDS011;7062;49.792;9.946;2024-02-26T10:16:58;8.20;;;6.80;;
13975;SDS011;7062;49.792;9.946;2024-02-26T10:19:29;6.80;;;5.30;;
13975;SDS011;7062;49.792;9.946;2024-02-26T10:21:56;7.90;;;5.80;;
13975;SDS011;7062;49.792;9.946;2024-02-26T10:24:22;8.07;;;5.93;;
13975;SDS011;7062;49.792;9.946;2024-02-26T10:26:48;7.33;;;5.80;;
13975;SDS011;7062;49.792;9.946;2024-02-26T10:29:14;7.83;;;5.77;;
13975;SDS011;7062;49.792;9.946;2024-02-26T10:31:43;9.00;;;5.73;;
13975;SDS011;7062;49.792;9.946;2024-02-26T10:34:09;6.50;;;5.53;;
13975;SDS011;7062;49.792;9.946;2024-02-26T10:36:35;7.37;;;5.07;;
13975;SDS011;7062;49.792;9.946;2024-02-26T10:39:04;6.43;;;5.73;;
13975;SDS011;7062;49.792;9.946;2024-02-26T10:41:30;12.37;;;5.77;;
13975;SDS011;7062;49.792;9.946;2024-02-26T10:43:58;8.87;;;5.47;;
13975;SDS011;7062;49.792;9.946;2024-02-26T10:46:25;6.33;;;4.77;;
13975;SDS011;7062;49.792;9.946;2024-02-26T10:48:51;9.47;;;5.83;;
13975;SDS011;7062;49.792;9.946;2024-02-26T10:51:18;6.27;;;4.93;;
13975;SDS011;7062;49.792;9.946;2024-02-26T10:53:47;5.50;;;4.77;;
13975;SDS011;7062;49.792;9.946;2024-02-26T10:56:14;5.33;;;4.53;;
13975;SDS011;7062;49.792;9.946;2024-02-26T10:58:43;6.30;;;4.47;;
13975;SDS011;7062;49.792;9.946;2024-02-26T11:01:11;4.53;;;3.97;;
13975;SDS011;7062;49.792;9.946;2024-02-26T11:03:37;5.83;;;4.87;;
13975;SDS011;7062;49.792;9.946;2024-02-26T11:06:04;5.73;;;4.97;;
13975;SDS011;7062;49.792;9.946;2024-02-26T11:08:30;4.80;;;4.10;;
13975;SDS011;7062;49.792;9.946;2024-02-26T11:10:57;5.47;;;4.43;;
13975;SDS011;7062;49.792;9.946;2024-02-26T11:13:23;4.33;;;3.93;;
13975;SDS011;7062;49.792;9.946;2024-02-26T11:15:55;5.77;;;4.83;;
13975;SDS011;7062;49.792;9.946;2024-02-26T11:18:25;5.03;;;4.30;;
13975;SDS011;7062;49.792;9.946;2024-02-26T11:20:52;4.80;;;4.30;;
13975;SDS011;7062;49.792;9.946;2024-02-26T11:23:22;5.90;;;4.47;;
13975;SDS011;7062;49.792;9.946;2024-02-26T11:25:51;5.50;;;4.20;;
13975;SDS011;7062;49.792;9.946;2024-02-26T11:28:20;6.57;;;3.73;;
13975;SDS011;7062;49.792;9.946;2024-02-26T11:30:47;7.23;;;4.03;;
13975;SDS011;7062;49.792;9.946;2024-02-26T11:33:15;4.73;;;3.77;;
13975;SDS011;7062;49.792;9.946;2024-02-26T11:35:41;4.53;;;3.67;;
13975;SDS011;7062;49.792;9.946;2024-02-26T11:38:07;4.37;;;3.53;;
13975;SDS011;7062;49.792;9.946;2024-02-26T11:40:33;3.50;;;3.10;;
13975;SDS011;7062;49.792;9.946;2024-02-26T11:43:06;4.37;;;3.33;;
13975;SDS011;7062;49.792;9.946;2024-02-26T11:45:47;5.67;;;3.50;;
13975;SDS011;7062;49.792;9.946;2024-02-26T11:48:15;4.67;;;3.13;;
13975;SDS011;7062;49.792;9.946;2024-02-26T11:50:46;5.73;;;3.17;;
13975;SDS011;7062;49.792;9.946;2024-02-26T11:53:20;3.97;;;3.07;;
13975;SDS011;7062;49.792;9.946;2024-02-26T11:59:00;4.37;;;3.37;;
13975;SDS011;7062;49.792;9.946;2024-02-26T12:01:35;3.33;;;3.03;;
13975;SDS011;7062;49.792;9.946;2024-02-26T12:04:21;5.97;;;2.60;;
13975;SDS011;7062;49.792;9.946;2024-02-26T12:09:39;4.60;;;2.70;;
13975;SDS011;7062;49.792;9.946;2024-02-26T12:12:08;3.77;;;2.90;;
13975;SDS011;7062;49.792;9.946;2024-02-26T12:14:52;3.10;;;2.70;;
13975;SDS011;7062;49.792;9.946;2024-02-26T12:17:22;2.77;;;2.00;;
13975;SDS011;7062;49.792;9.946;2024-02-26T12:19:48;2.70;;;2.17;;
13975;SDS011;7062;49.792;9.946;2024-02-26T12:22:15;9.90;;;2.97;;
13975;SDS011;7062;49.792;9.946;2024-02-26T12:24:44;4.57;;;2.37;;
13975;SDS011;7062;49.792;9.946;2024-02-26T12:27:10;5.03;;;3.00;;
13975;SDS011;7062;49.792;9.946;2024-02-26T12:29:35;10.00;;;2.80;;
13975;SDS011;7062;49.792;9.946;2024-02-26T12:32:01;4.87;;;2.93;;
13975;SDS011;7062;49.792;9.946;2024-02-26T12:34:29;4.20;;;2.33;;
13975;SDS011;7062;49.792;9.946;2024-02-26T12:36:54;2.50;;;2.20;;
13975;SDS011;7062;49.792;9.946;2024-02-26T12:39:20;6.90;;;2.40;;
13975;SDS011;7062;49.792;9.946;2024-02-26T12:41:46;4.20;;;2.50;;
13975;SDS011;7062;49.792;9.946;2024-02-26T12:44:24;3.60;;;2.47;;
13975;SDS011;7062;49.792;9.946;2024-02-26T12:46:50;7.30;;;2.77;;
13975;SDS011;7062;49.792;9.946;2024-02-26T12:49:16;4.37;;;2.13;;
13975;SDS011;7062;49.792;9.946;2024-02-26T12:51:43;2.93;;;2.43;;
13975;SDS011;7062;49.792;9.946;2024-02-26T12:54:10;2.37;;;1.53;;
13975;SDS011;7062;49.792;9.946;2024-02-26T12:56:36;2.33;;;1.73;;
13975;SDS011;7062;49.792;9.946;2024-02-26T12:59:02;3.57;;;2.27;;
13975;SDS011;7062;49.792;9.946;2024-02-26T13:01:28;7.90;;;2.80;;
13975;SDS011;7062;49.792;9.946;2024-02-26T13:03:55;6.80;;;2.27;;
13975;SDS011;7062;49.792;9.946;2024-02-26T13:06:21;8.13;;;2.77;;
13975;SDS011;7062;49.792;9.946;2024-02-26T13:08:47;3.17;;;2.20;;
13975;SDS011;7062;49.792;9.946;2024-02-26T13:11:13;3.57;;;2.63;;
13975;SDS011;7062;49.792;9.946;2024-02-26T13:13:39;3.57;;;2.40;;
13975;SDS011;7062;49.792;9.946;2024-02-26T13:16:05;6.70;;;2.40;;
13975;SDS011;7062;49.792;9.946;2024-02-26T13:18:33;4.03;;;2.40;;
13975;SDS011;7062;49.792;9.946;2024-02-26T13:21:12;5.73;;;2.83;;
13975;SDS011;7062;49.792;9.946;2024-02-26T13:23:40;4.73;;;2.80;;
13975;SDS011;7062;49.792;9.946;2024-02-26T13:26:06;2.80;;;2.20;;
13975;SDS011;7062;49.792;9.946;2024-02-26T13:28:32;2.30;;;2.10;;
13975;SDS011;7062;49.792;9.946;2024-02-26T13:30:59;6.03;;;3.20;;
13975;SDS011;7062;49.792;9.946;2024-02-26T13:33:27;5.10;;;3.00;;
13975;SDS011;7062;49.792;9.946;2024-02-26T13:35:54;8.53;;;3.63;;
13975;SDS011;7062;49.792;9.946;2024-02-26T13:38:20;6.07;;;3.43;;
13975;SDS011;7062;49.792;9.946;2024-02-26T13:40:47;4.60;;;3.03;;
13975;SDS011;7062;49.792;9.946;2024-02-26T13:43:13;5.10;;;2.67;;
13975;SDS011;7062;49.792;9.946;2024-02-26T13:45:39;2.93;;;2.43;;
13975;SDS011;7062;49.792;9.946;2024-02-26T13:48:05;5.53;;;2.70;;
13975;SDS011;7062;49.792;9.946;2024-02-26T13:50:32;5.23;;;2.83;;
13975;SDS011;7062;49.792;9.946;2024-02-26T13:52:58;4.27;;;3.00;;
13975;SDS011;7062;49.792;9.946;2024-02-26T13:55:27;3.43;;;2.73;;
13975;SDS011;7062;49.792;9.946;2024-02-26T13:57:55;3.90;;;2.10;;
13975;SDS011;7062;49.792;9.946;2024-02-26T14:00:21;3.23;;;2.70;;
13975;SDS011;7062;49.792;9.946;2024-02-26T14:02:48;26.97;;;3.07;;
13975;SDS011;7062;49.792;9.946;2024-02-26T14:05:13;4.63;;;3.27;;
13975;SDS011;7062;49.792;9.946;2024-02-26T14:07:40;7.40;;;3.20;;
13975;SDS011;7062;49.792;9.946;2024-02-26T14:10:06;2.67;;;2.33;;
13975;SDS011;7062;49.792;9.946;2024-02-26T14:12:32;2.73;;;1.80;;
13975;SDS011;7062;49.792;9.946;2024-02-26T14:14:58;3.87;;;2.20;;
13975;SDS011;7062;49.792;9.946;2024-02-26T14:17:25;4.07;;;2.30;;
13975;SDS011;7062;49.792;9.946;2024-02-26T14:19:51;5.40;;;2.80;;
13975;SDS011;7062;49.792;9.946;2024-02-26T14:22:17;2.73;;;2.13;;
13975;SDS011;7062;49.792;9.946;2024-02-26T14:24:43;3.70;;;2.07;;
13975;SDS011;7062;49.792;9.946;2024-02-26T14:27:09;3.77;;;2.03;;
13975;SDS011;7062;49.792;9.946;2024-02-26T14:29:39;2.63;;;1.57;;
13975;SDS011;7062;49.792;9.946;2024-02-26T14:32:06;3.77;;;2.47;;
13975;SDS011;7062;49.792;9.946;2024-02-26T14:34:32;2.97;;;1.77;;
13975;SDS011;7062;49.792;9.946;2024-02-26T14:36:58;3.37;;;1.80;;
13975;SDS011;7062;49.792;9.946;2024-02-26T14:39:24;3.30;;;2.03;;
13975;SDS011;7062;49.792;9.946;2024-02-26T14:41:49;2.40;;;1.80;;
13975;SDS011;7062;49.792;9.946;2024-02-26T14:44:15;2.17;;;1.97;;
13975;SDS011;7062;49.792;9.946;2024-02-26T14:46:41;3.97;;;1.93;;
13975;SDS011;7062;49.792;9.946;2024-02-26T14:49:07;2.20;;;1.77;;
13975;SDS011;7062;49.792;9.946;2024-02-26T14:51:32;3.00;;;2.03;;
13975;SDS011;7062;49.792;9.946;2024-02-26T14:53:58;5.17;;;2.13;;
13975;SDS011;7062;49.792;9.946;2024-02-26T14:56:25;3.30;;;2.20;;
13975;SDS011;7062;49.792;9.946;2024-02-26T14:58:51;4.63;;;2.03;;
13975;SDS011;7062;49.792;9.946;2024-02-26T15:01:17;3.80;;;2.00;;
13975;SDS011;7062;49.792;9.946;2024-02-26T15:03:42;5.00;;;2.33;;